sensor_id;sensor_type;location;lat;lon;timestamp;P1;durP1;ratioP1;P2;durP2;ratioP2
39792;SDS011;26080;42.264;24.536;2023-02-21T00:00:14;1.02;;;0.52;;
39792;SDS011;26080;42.264;24.536;2023-02-21T00:02:58;0.28;;;0.28;;
39792;SDS011;26080;42.264;24.536;2023-02-21T00:05:42;4.05;;;2.08;;
39792;SDS011;26080;42.264;24.536;2023-02-21T00:08:26;5.68;;;0.88;;
39792;SDS011;26080;42.264;24.536;2023-02-21T00:11:10;0.52;;;0.52;;
39792;SDS011;26080;42.264;24.536;2023-02-21T00:13:54;0.63;;;0.13;;
39792;SDS011;26080;42.264;24.536;2023-02-21T00:16:38;0.68;;;0.68;;
39792;SDS011;26080;42.264;24.536;2023-02-21T00:22:06;0.90;;;0.52;;
39792;SDS011;26080;42.264;24.536;2023-02-21T00:24:50;0.20;;;0.10;;
39792;SDS011;26080;42.264;24.536;2023-02-21T00:27:34;0.03;;;0.03;;
39792;SDS011;26080;42.264;24.536;2023-02-21T00:33:02;0.35;;;0.35;;
39792;SDS011;26080;42.264;24.536;2023-02-21T00:35:46;0.60;;;0.43;;
39792;SDS011;26080;42.264;24.536;2023-02-21T00:38:30;0.00;;;0.00;;
39792;SDS011;26080;42.264;24.536;2023-02-21T00:41:14;2.22;;;1.17;;
39792;SDS011;26080;42.264;24.536;2023-02-21T00:43:58;0.95;;;0.80;;
39792;SDS011;26080;42.264;24.536;2023-02-21T00:46:42;0.00;;;0.00;;
39792;SDS011;26080;42.264;24.536;2023-02-21T00:49:27;0.20;;;0.10;;
39792;SDS011;26080;42.264;24.536;2023-02-21T00:52:12;0.35;;;0.32;;
39792;SDS011;26080;42.264;24.536;2023-02-21T00:54:56;0.52;;;0.45;;
39792;SDS011;26080;42.264;24.536;2023-02-21T00:57:40;0.30;;;0.30;;
39792;SDS011;26080;42.264;24.536;2023-02-21T01:00:25;0.50;;;0.45;;
39792;SDS011;26080;42.264;24.536;2023-02-21T01:03:09;0.63;;;0.20;;
39792;SDS011;26080;42.264;24.536;2023-02-21T01:05:53;0.20;;;0.20;;
39792;SDS011;26080;42.264;24.536;2023-02-21T01:08:41;1.33;;;0.30;;
39792;SDS011;26080;42.264;24.536;2023-02-21T01:11:26;0.30;;;0.30;;
39792;SDS011;26080;42.264;24.536;2023-02-21T01:14:10;0.13;;;0.13;;
39792;SDS011;26080;42.264;24.536;2023-02-21T01:16:55;0.73;;;0.28;;
39792;SDS011;26080;42.264;24.536;2023-02-21T01:19:40;0.20;;;0.20;;
39792;SDS011;26080;42.264;24.536;2023-02-21T01:22:24;0.10;;;0.10;;
39792;SDS011;26080;42.264;24.536;2023-02-21T01:25:08;0.10;;;0.10;;
39792;SDS011;26080;42.264;24.536;2023-02-21T01:27:53;0.32;;;0.28;;
39792;SDS011;26080;42.264;24.536;2023-02-21T01:30:38;0.20;;;0.20;;
39792;SDS011;26080;42.264;24.536;2023-02-21T01:33:22;0.45;;;0.45;;
39792;SDS011;26080;42.264;24.536;2023-02-21T01:36:06;0.10;;;0.10;;
39792;SDS011;26080;42.264;24.536;2023-02-21T01:38:50;0.80;;;0.40;;
39792;SDS011;26080;42.264;24.536;2023-02-21T01:41:34;1.35;;;0.80;;
39792;SDS011;26080;42.264;24.536;2023-02-21T01:47:14;0.20;;;0.20;;
39792;SDS011;26080;42.264;24.536;2023-02-21T01:49:59;0.20;;;0.10;;
39792;SDS011;26080;42.264;24.536;2023-02-21T01:52:45;0.45;;;0.45;;
39792;SDS011;26080;42.264;24.536;2023-02-21T01:55:31;0.38;;;0.28;;
39792;SDS011;26080;42.264;24.536;2023-02-21T01:58:16;0.10;;;0.10;;
39792;SDS011;26080;42.264;24.536;2023-02-21T02:01:04;1.17;;;0.88;;
39792;SDS011;26080;42.264;24.536;2023-02-21T02:03:48;0.30;;;0.30;;
39792;SDS011;26080;42.264;24.536;2023-02-21T02:06:32;0.80;;;0.63;;
39792;SDS011;26080;42.264;24.536;2023-02-21T02:09:17;6.10;;;0.40;;
39792;SDS011;26080;42.264;24.536;2023-02-21T02:26:18;0.00;;;0.00;;
39792;SDS011;26080;42.264;24.536;2023-02-21T02:29:24;1.00;;;0.25;;
39792;SDS011;26080;42.264;24.536;2023-02-21T02:37:56;0.25;;;0.25;;
39792;SDS011;26080;42.264;24.536;2023-02-21T02:43:14;2.58;;;0.60;;
39792;SDS011;26080;42.264;24.536;2023-02-21T02:48:45;0.10;;;0.10;;
39792;SDS011;26080;42.264;24.536;2023-02-21T02:51:17;0.40;;;0.40;;
39792;SDS011;26080;42.264;24.536;2023-02-21T02:53:44;0.32;;;0.32;;
39792;SDS011;26080;42.264;24.536;2023-02-21T02:56:10;0.30;;;0.30;;
39792;SDS011;26080;42.264;24.536;2023-02-21T03:06:57;0.20;;;0.17;;
39792;SDS011;26080;42.264;24.536;2023-02-21T03:15:26;0.30;;;0.25;;
39792;SDS011;26080;42.264;24.536;2023-02-21T03:20:29;0.43;;;0.25;;
39792;SDS011;26080;42.264;24.536;2023-02-21T03:22:56;0.08;;;0.08;;
39792;SDS011;26080;42.264;24.536;2023-02-21T03:25:23;0.00;;;0.00;;
39792;SDS011;26080;42.264;24.536;2023-02-21T03:27:50;0.10;;;0.10;;
39792;SDS011;26080;42.264;24.536;2023-02-21T03:30:18;1.02;;;0.75;;
39792;SDS011;26080;42.264;24.536;2023-02-21T03:32:45;0.10;;;0.10;;
39792;SDS011;26080;42.264;24.536;2023-02-21T03:35:14;0.63;;;0.30;;
39792;SDS011;26080;42.264;24.536;2023-02-21T03:37:41;0.30;;;0.30;;
39792;SDS011;26080;42.264;24.536;2023-02-21T03:40:16;0.00;;;0.00;;
39792;SDS011;26080;42.264;24.536;2023-02-21T03:42:44;1.55;;;0.75;;
39792;SDS011;26080;42.264;24.536;2023-02-21T03:45:10;1.10;;;0.50;;
39792;SDS011;26080;42.264;24.536;2023-02-21T03:47:35;0.47;;;0.40;;
39792;SDS011;26080;42.264;24.536;2023-02-21T03:50:01;1.05;;;0.70;;
39792;SDS011;26080;42.264;24.536;2023-02-21T03:52:27;0.30;;;0.30;;
39792;SDS011;26080;42.264;24.536;2023-02-21T03:54:53;0.52;;;0.20;;
39792;SDS011;26080;42.264;24.536;2023-02-21T03:57:18;0.73;;;0.52;;
39792;SDS011;26080;42.264;24.536;2023-02-21T03:59:44;6.05;;;2.88;;
39792;SDS011;26080;42.264;24.536;2023-02-21T04:02:09;1.05;;;0.40;;
39792;SDS011;26080;42.264;24.536;2023-02-21T04:04:35;1.98;;;1.13;;
39792;SDS011;26080;42.264;24.536;2023-02-21T04:07:00;0.45;;;0.45;;
39792;SDS011;26080;42.264;24.536;2023-02-21T04:09:26;0.35;;;0.22;;
39792;SDS011;26080;42.264;24.536;2023-02-21T04:11:52;0.30;;;0.30;;
39792;SDS011;26080;42.264;24.536;2023-02-21T04:14:17;0.70;;;0.63;;
39792;SDS011;26080;42.264;24.536;2023-02-21T04:16:42;0.50;;;0.47;;
39792;SDS011;26080;42.264;24.536;2023-02-21T04:19:08;0.10;;;0.10;;
39792;SDS011;26080;42.264;24.536;2023-02-21T04:21:33;0.35;;;0.35;;
39792;SDS011;26080;42.264;24.536;2023-02-21T04:23:59;1.00;;;0.22;;
39792;SDS011;26080;42.264;24.536;2023-02-21T04:26:24;0.20;;;0.20;;
39792;SDS011;26080;42.264;24.536;2023-02-21T04:28:50;0.20;;;0.20;;
39792;SDS011;26080;42.264;24.536;2023-02-21T04:31:17;0.25;;;0.25;;
39792;SDS011;26080;42.264;24.536;2023-02-21T04:33:43;0.17;;;0.17;;
39792;SDS011;26080;42.264;24.536;2023-02-21T04:36:09;0.43;;;0.32;;
39792;SDS011;26080;42.264;24.536;2023-02-21T04:38:34;0.10;;;0.10;;
39792;SDS011;26080;42.264;24.536;2023-02-21T04:41:02;0.22;;;0.22;;
39792;SDS011;26080;42.264;24.536;2023-02-21T04:43:28;0.25;;;0.10;;
39792;SDS011;26080;42.264;24.536;2023-02-21T04:45:53;0.28;;;0.28;;
39792;SDS011;26080;42.264;24.536;2023-02-21T04:48:19;2.17;;;0.20;;
39792;SDS011;26080;42.264;24.536;2023-02-21T04:50:45;0.30;;;0.30;;
39792;SDS011;26080;42.264;24.536;2023-02-21T04:53:10;1.20;;;0.60;;
39792;SDS011;26080;42.264;24.536;2023-02-21T04:55:36;0.52;;;0.52;;
39792;SDS011;26080;42.264;24.536;2023-02-21T04:58:01;2.75;;;1.42;;
39792;SDS011;26080;42.264;24.536;2023-02-21T05:00:26;6.32;;;1.20;;
39792;SDS011;26080;42.264;24.536;2023-02-21T05:02:52;3.65;;;1.38;;
39792;SDS011;26080;42.264;24.536;2023-02-21T05:05:17;2.55;;;0.70;;
39792;SDS011;26080;42.264;24.536;2023-02-21T05:07:43;1.00;;;0.70;;
39792;SDS011;26080;42.264;24.536;2023-02-21T05:10:09;0.00;;;0.00;;
39792;SDS011;26080;42.264;24.536;2023-02-21T05:12:35;0.63;;;0.63;;
39792;SDS011;26080;42.264;24.536;2023-02-21T05:15:03;1.00;;;0.80;;
39792;SDS011;26080;42.264;24.536;2023-02-21T05:17:30;2.22;;;1.52;;
39792;SDS011;26080;42.264;24.536;2023-02-21T05:19:55;5.78;;;1.20;;
39792;SDS011;26080;42.264;24.536;2023-02-21T05:22:21;3.83;;;2.53;;
39792;SDS011;26080;42.264;24.536;2023-02-21T05:24:46;4.15;;;2.58;;
39792;SDS011;26080;42.264;24.536;2023-02-21T05:27:13;9.10;;;3.75;;
39792;SDS011;26080;42.264;24.536;2023-02-21T05:29:40;3.53;;;3.08;;
39792;SDS011;26080;42.264;24.536;2023-02-21T05:32:07;4.22;;;2.80;;
39792;SDS011;26080;42.264;24.536;2023-02-21T05:34:33;7.07;;;2.95;;
39792;SDS011;26080;42.264;24.536;2023-02-21T05:36:58;2.67;;;0.95;;
39792;SDS011;26080;42.264;24.536;2023-02-21T05:39:24;4.28;;;0.88;;
39792;SDS011;26080;42.264;24.536;2023-02-21T05:41:50;1.85;;;1.05;;
39792;SDS011;26080;42.264;24.536;2023-02-21T05:44:16;7.20;;;4.10;;
39792;SDS011;26080;42.264;24.536;2023-02-21T05:46:42;2.60;;;1.17;;
39792;SDS011;26080;42.264;24.536;2023-02-21T05:49:07;4.28;;;0.85;;
39792;SDS011;26080;42.264;24.536;2023-02-21T05:51:34;1.30;;;0.90;;
39792;SDS011;26080;42.264;24.536;2023-02-21T05:54:04;2.50;;;0.98;;
39792;SDS011;26080;42.264;24.536;2023-02-21T05:56:35;0.60;;;0.60;;
39792;SDS011;26080;42.264;24.536;2023-02-21T05:59:04;0.20;;;0.20;;
39792;SDS011;26080;42.264;24.536;2023-02-21T06:01:30;0.10;;;0.10;;
39792;SDS011;26080;42.264;24.536;2023-02-21T06:03:56;0.28;;;0.28;;
39792;SDS011;26080;42.264;24.536;2023-02-21T06:06:21;1.35;;;0.43;;
39792;SDS011;26080;42.264;24.536;2023-02-21T06:08:47;0.20;;;0.20;;
39792;SDS011;26080;42.264;24.536;2023-02-21T06:11:14;0.63;;;0.63;;
39792;SDS011;26080;42.264;24.536;2023-02-21T06:13:45;1.63;;;0.95;;
39792;SDS011;26080;42.264;24.536;2023-02-21T06:16:11;3.75;;;2.40;;
39792;SDS011;26080;42.264;24.536;2023-02-21T06:18:36;4.68;;;1.63;;
39792;SDS011;26080;42.264;24.536;2023-02-21T06:21:01;2.13;;;1.45;;
39792;SDS011;26080;42.264;24.536;2023-02-21T06:23:27;4.43;;;2.75;;
39792;SDS011;26080;42.264;24.536;2023-02-21T06:25:52;1.17;;;0.88;;
39792;SDS011;26080;42.264;24.536;2023-02-21T06:28:18;2.60;;;1.48;;
39792;SDS011;26080;42.264;24.536;2023-02-21T06:30:43;1.10;;;0.57;;
39792;SDS011;26080;42.264;24.536;2023-02-21T06:33:09;0.52;;;0.45;;
39792;SDS011;26080;42.264;24.536;2023-02-21T06:35:34;0.90;;;0.40;;
39792;SDS011;26080;42.264;24.536;2023-02-21T07:37:38;3.28;;;1.05;;
39792;SDS011;26080;42.264;24.536;2023-02-21T07:40:04;1.83;;;1.20;;
39792;SDS011;26080;42.264;24.536;2023-02-21T07:42:33;6.10;;;0.90;;
39792;SDS011;26080;42.264;24.536;2023-02-21T07:44:59;1.50;;;1.40;;
39792;SDS011;26080;42.264;24.536;2023-02-21T07:47:25;1.92;;;0.77;;
39792;SDS011;26080;42.264;24.536;2023-02-21T07:49:51;0.70;;;0.45;;
39792;SDS011;26080;42.264;24.536;2023-02-21T07:52:18;0.40;;;0.40;;
39792;SDS011;26080;42.264;24.536;2023-02-21T07:54:44;0.40;;;0.40;;
39792;SDS011;26080;42.264;24.536;2023-02-21T07:57:10;0.50;;;0.50;;
39792;SDS011;26080;42.264;24.536;2023-02-21T07:59:35;0.50;;;0.40;;
39792;SDS011;26080;42.264;24.536;2023-02-21T08:02:01;3.20;;;1.25;;
39792;SDS011;26080;42.264;24.536;2023-02-21T08:04:26;0.93;;;0.47;;
39792;SDS011;26080;42.264;24.536;2023-02-21T08:06:56;0.63;;;0.63;;
39792;SDS011;26080;42.264;24.536;2023-02-21T08:09:24;2.50;;;1.05;;
39792;SDS011;26080;42.264;24.536;2023-02-21T08:11:49;0.68;;;0.50;;
39792;SDS011;26080;42.264;24.536;2023-02-21T08:14:15;4.78;;;1.52;;
39792;SDS011;26080;42.264;24.536;2023-02-21T08:16:40;0.77;;;0.70;;
39792;SDS011;26080;42.264;24.536;2023-02-21T08:19:05;1.08;;;0.50;;
39792;SDS011;26080;42.264;24.536;2023-02-21T08:21:33;0.93;;;0.57;;
39792;SDS011;26080;42.264;24.536;2023-02-21T08:23:58;1.95;;;1.27;;
39792;SDS011;26080;42.264;24.536;2023-02-21T08:26:24;1.52;;;0.95;;
39792;SDS011;26080;42.264;24.536;2023-02-21T08:28:49;0.52;;;0.52;;
39792;SDS011;26080;42.264;24.536;2023-02-21T08:31:15;0.85;;;0.45;;
39792;SDS011;26080;42.264;24.536;2023-02-21T08:33:40;2.03;;;0.63;;
39792;SDS011;26080;42.264;24.536;2023-02-21T08:36:06;1.10;;;0.52;;
39792;SDS011;26080;42.264;24.536;2023-02-21T08:38:31;0.30;;;0.30;;
39792;SDS011;26080;42.264;24.536;2023-02-21T08:40:57;0.65;;;0.52;;
39792;SDS011;26080;42.264;24.536;2023-02-21T08:43:23;0.50;;;0.50;;
39792;SDS011;26080;42.264;24.536;2023-02-21T08:45:49;0.80;;;0.52;;
39792;SDS011;26080;42.264;24.536;2023-02-21T08:48:15;1.42;;;0.70;;
39792;SDS011;26080;42.264;24.536;2023-02-21T08:50:40;0.65;;;0.55;;
39792;SDS011;26080;42.264;24.536;2023-02-21T08:53:06;0.50;;;0.50;;
39792;SDS011;26080;42.264;24.536;2023-02-21T08:55:31;1.23;;;0.52;;
39792;SDS011;26080;42.264;24.536;2023-02-21T08:57:57;0.60;;;0.57;;
39792;SDS011;26080;42.264;24.536;2023-02-21T09:00:23;1.92;;;1.45;;
39792;SDS011;26080;42.264;24.536;2023-02-21T09:02:52;2.30;;;0.68;;
39792;SDS011;26080;42.264;24.536;2023-02-21T09:05:19;3.83;;;1.05;;
39792;SDS011;26080;42.264;24.536;2023-02-21T09:07:51;0.73;;;0.63;;
39792;SDS011;26080;42.264;24.536;2023-02-21T09:10:23;1.00;;;0.80;;
39792;SDS011;26080;42.264;24.536;2023-02-21T09:12:50;0.65;;;0.60;;
39792;SDS011;26080;42.264;24.536;2023-02-21T09:15:15;1.17;;;0.85;;
39792;SDS011;26080;42.264;24.536;2023-02-21T09:17:41;1.25;;;0.70;;
39792;SDS011;26080;42.264;24.536;2023-02-21T09:20:08;0.40;;;0.35;;
39792;SDS011;26080;42.264;24.536;2023-02-21T09:22:34;0.30;;;0.30;;
39792;SDS011;26080;42.264;24.536;2023-02-21T09:25:00;1.20;;;0.32;;
39792;SDS011;26080;42.264;24.536;2023-02-21T09:27:26;0.75;;;0.68;;
39792;SDS011;26080;42.264;24.536;2023-02-21T09:30:02;1.50;;;0.90;;
39792;SDS011;26080;42.264;24.536;2023-02-21T09:32:33;0.15;;;0.15;;
39792;SDS011;26080;42.264;24.536;2023-02-21T09:34:59;0.45;;;0.43;;
39792;SDS011;26080;42.264;24.536;2023-02-21T09:37:24;3.03;;;0.60;;
39792;SDS011;26080;42.264;24.536;2023-02-21T09:39:50;1.17;;;0.95;;
39792;SDS011;26080;42.264;24.536;2023-02-21T09:42:18;3.70;;;0.98;;
39792;SDS011;26080;42.264;24.536;2023-02-21T09:44:48;3.63;;;1.70;;
39792;SDS011;26080;42.264;24.536;2023-02-21T09:47:21;8.18;;;0.70;;
39792;SDS011;26080;42.264;24.536;2023-02-21T09:49:57;0.20;;;0.20;;
39792;SDS011;26080;42.264;24.536;2023-02-21T09:52:34;0.50;;;0.47;;
39792;SDS011;26080;42.264;24.536;2023-02-21T09:55:10;5.55;;;1.17;;
39792;SDS011;26080;42.264;24.536;2023-02-21T09:57:45;0.75;;;0.75;;
39792;SDS011;26080;42.264;24.536;2023-02-21T10:00:32;1.70;;;1.02;;
39792;SDS011;26080;42.264;24.536;2023-02-21T10:06:12;1.35;;;0.70;;
39792;SDS011;26080;42.264;24.536;2023-02-21T10:08:55;5.80;;;1.83;;
39792;SDS011;26080;42.264;24.536;2023-02-21T10:11:29;0.20;;;0.20;;
39792;SDS011;26080;42.264;24.536;2023-02-21T10:16:48;0.20;;;0.20;;
39792;SDS011;26080;42.264;24.536;2023-02-21T10:19:40;0.20;;;0.20;;
39792;SDS011;26080;42.264;24.536;2023-02-21T10:24:44;3.20;;;0.38;;
39792;SDS011;26080;42.264;24.536;2023-02-21T10:27:17;3.08;;;1.20;;
39792;SDS011;26080;42.264;24.536;2023-02-21T10:32:30;6.32;;;1.05;;
39792;SDS011;26080;42.264;24.536;2023-02-21T10:34:56;0.52;;;0.45;;
39792;SDS011;26080;42.264;24.536;2023-02-21T10:37:32;0.35;;;0.35;;
39792;SDS011;26080;42.264;24.536;2023-02-21T10:40:02;1.45;;;0.47;;
39792;SDS011;26080;42.264;24.536;2023-02-21T10:42:53;0.28;;;0.28;;
39792;SDS011;26080;42.264;24.536;2023-02-21T10:45:23;6.32;;;0.95;;
39792;SDS011;26080;42.264;24.536;2023-02-21T10:48:11;1.08;;;0.40;;
39792;SDS011;26080;42.264;24.536;2023-02-21T10:53:21;1.00;;;0.70;;
39792;SDS011;26080;42.264;24.536;2023-02-21T11:01:34;0.40;;;0.40;;
39792;SDS011;26080;42.264;24.536;2023-02-21T11:06:45;1.00;;;0.88;;
39792;SDS011;26080;42.264;24.536;2023-02-21T11:09:32;0.50;;;0.50;;
39792;SDS011;26080;42.264;24.536;2023-02-21T11:12:04;1.15;;;0.70;;
39792;SDS011;26080;42.264;24.536;2023-02-21T11:14:44;0.40;;;0.32;;
39792;SDS011;26080;42.264;24.536;2023-02-21T11:17:11;0.35;;;0.35;;
39792;SDS011;26080;42.264;24.536;2023-02-21T11:22:08;1.27;;;0.98;;
39792;SDS011;26080;42.264;24.536;2023-02-21T11:24:43;1.35;;;0.65;;
39792;SDS011;26080;42.264;24.536;2023-02-21T11:27:13;0.40;;;0.40;;
39792;SDS011;26080;42.264;24.536;2023-02-21T11:29:41;0.60;;;0.50;;
39792;SDS011;26080;42.264;24.536;2023-02-21T11:32:10;1.13;;;0.40;;
39792;SDS011;26080;42.264;24.536;2023-02-21T11:34:40;0.73;;;0.55;;
39792;SDS011;26080;42.264;24.536;2023-02-21T11:37:12;1.38;;;0.40;;
39792;SDS011;26080;42.264;24.536;2023-02-21T11:39:39;0.15;;;0.15;;
39792;SDS011;26080;42.264;24.536;2023-02-21T11:42:22;0.22;;;0.22;;
39792;SDS011;26080;42.264;24.536;2023-02-21T11:45:10;1.00;;;0.20;;
39792;SDS011;26080;42.264;24.536;2023-02-21T11:48:00;5.15;;;0.55;;
39792;SDS011;26080;42.264;24.536;2023-02-21T11:50:29;0.47;;;0.32;;
39792;SDS011;26080;42.264;24.536;2023-02-21T11:53:12;7.15;;;0.57;;
39792;SDS011;26080;42.264;24.536;2023-02-21T11:55:47;0.40;;;0.40;;
39792;SDS011;26080;42.264;24.536;2023-02-21T11:58:41;0.32;;;0.32;;
39792;SDS011;26080;42.264;24.536;2023-02-21T12:01:18;0.35;;;0.20;;
39792;SDS011;26080;42.264;24.536;2023-02-21T12:06:45;0.20;;;0.20;;
39792;SDS011;26080;42.264;24.536;2023-02-21T12:12:05;0.50;;;0.38;;
39792;SDS011;26080;42.264;24.536;2023-02-21T12:23:07;0.98;;;0.28;;
39792;SDS011;26080;42.264;24.536;2023-02-21T12:36:55;0.20;;;0.20;;
39792;SDS011;26080;42.264;24.536;2023-02-21T12:40:08;3.47;;;0.38;;
39792;SDS011;26080;42.264;24.536;2023-02-21T12:45:32;1.42;;;0.30;;
39792;SDS011;26080;42.264;24.536;2023-02-21T12:48:03;0.20;;;0.20;;
39792;SDS011;26080;42.264;24.536;2023-02-21T12:50:37;0.20;;;0.20;;
39792;SDS011;26080;42.264;24.536;2023-02-21T12:53:14;0.20;;;0.20;;
39792;SDS011;26080;42.264;24.536;2023-02-21T12:56:01;0.43;;;0.40;;
39792;SDS011;26080;42.264;24.536;2023-02-21T12:58:32;0.63;;;0.43;;
39792;SDS011;26080;42.264;24.536;2023-02-21T13:07:22;0.38;;;0.30;;
39792;SDS011;26080;42.264;24.536;2023-02-21T13:09:55;0.25;;;0.25;;
39792;SDS011;26080;42.264;24.536;2023-02-21T13:12:30;0.40;;;0.40;;
39792;SDS011;26080;42.264;24.536;2023-02-21T13:15:04;0.40;;;0.40;;
39792;SDS011;26080;42.264;24.536;2023-02-21T13:17:40;0.40;;;0.35;;
39792;SDS011;26080;42.264;24.536;2023-02-21T13:20:09;0.20;;;0.20;;
39792;SDS011;26080;42.264;24.536;2023-02-21T13:28:44;0.20;;;0.20;;
39792;SDS011;26080;42.264;24.536;2023-02-21T13:31:24;0.32;;;0.20;;
39792;SDS011;26080;42.264;24.536;2023-02-21T13:33:53;0.50;;;0.50;;
39792;SDS011;26080;42.264;24.536;2023-02-21T13:36:22;0.65;;;0.38;;
39792;SDS011;26080;42.264;24.536;2023-02-21T13:41:26;1.48;;;0.95;;
39792;SDS011;26080;42.264;24.536;2023-02-21T13:43:57;3.40;;;0.75;;
39792;SDS011;26080;42.264;24.536;2023-02-21T13:52:13;0.25;;;0.25;;
39792;SDS011;26080;42.264;24.536;2023-02-21T13:55:07;0.30;;;0.30;;
39792;SDS011;26080;42.264;24.536;2023-02-21T13:57:47;0.75;;;0.30;;
39792;SDS011;26080;42.264;24.536;2023-02-21T14:02:58;0.70;;;0.43;;
39792;SDS011;26080;42.264;24.536;2023-02-21T14:10:58;9.32;;;0.57;;
39792;SDS011;26080;42.264;24.536;2023-02-21T14:24:00;1.40;;;0.28;;
39792;SDS011;26080;42.264;24.536;2023-02-21T14:28:59;1.85;;;0.70;;
39792;SDS011;26080;42.264;24.536;2023-02-21T14:34:31;0.22;;;0.20;;
39792;SDS011;26080;42.264;24.536;2023-02-21T14:39:47;0.98;;;0.40;;
39792;SDS011;26080;42.264;24.536;2023-02-21T14:45:21;0.25;;;0.25;;
39792;SDS011;26080;42.264;24.536;2023-02-21T14:55:59;0.68;;;0.40;;
39792;SDS011;26080;42.264;24.536;2023-02-21T15:01:57;0.32;;;0.20;;
39792;SDS011;26080;42.264;24.536;2023-02-21T15:07:25;0.30;;;0.28;;
39792;SDS011;26080;42.264;24.536;2023-02-21T15:12:38;1.10;;;0.57;;
39792;SDS011;26080;42.264;24.536;2023-02-21T15:15:10;0.52;;;0.52;;
39792;SDS011;26080;42.264;24.536;2023-02-21T15:17:39;0.30;;;0.30;;
39792;SDS011;26080;42.264;24.536;2023-02-21T15:20:13;0.25;;;0.25;;
39792;SDS011;26080;42.264;24.536;2023-02-21T15:22:40;0.30;;;0.30;;
39792;SDS011;26080;42.264;24.536;2023-02-21T15:27:31;0.63;;;0.60;;
39792;SDS011;26080;42.264;24.536;2023-02-21T15:30:07;0.60;;;0.60;;
39792;SDS011;26080;42.264;24.536;2023-02-21T15:32:40;2.40;;;1.58;;
39792;SDS011;26080;42.264;24.536;2023-02-21T15:35:09;0.77;;;0.60;;
39792;SDS011;26080;42.264;24.536;2023-02-21T15:37:40;1.27;;;0.32;;
39792;SDS011;26080;42.264;24.536;2023-02-21T15:40:13;1.30;;;0.70;;
39792;SDS011;26080;42.264;24.536;2023-02-21T15:42:47;3.53;;;1.02;;
39792;SDS011;26080;42.264;24.536;2023-02-21T15:45:20;1.90;;;1.17;;
39792;SDS011;26080;42.264;24.536;2023-02-21T15:47:50;0.73;;;0.73;;
39792;SDS011;26080;42.264;24.536;2023-02-21T15:52:50;1.38;;;0.77;;
39792;SDS011;26080;42.264;24.536;2023-02-21T15:57:59;1.48;;;1.17;;
39792;SDS011;26080;42.264;24.536;2023-02-21T16:00:26;5.85;;;2.35;;
39792;SDS011;26080;42.264;24.536;2023-02-21T16:03:36;4.25;;;1.48;;
39792;SDS011;26080;42.264;24.536;2023-02-21T16:06:12;0.85;;;0.82;;
39792;SDS011;26080;42.264;24.536;2023-02-21T16:08:38;2.88;;;1.55;;
39792;SDS011;26080;42.264;24.536;2023-02-21T16:11:15;2.30;;;1.45;;
39792;SDS011;26080;42.264;24.536;2023-02-21T16:13:41;4.03;;;2.45;;
39792;SDS011;26080;42.264;24.536;2023-02-21T16:16:07;2.63;;;1.38;;
39792;SDS011;26080;42.264;24.536;2023-02-21T16:18:33;2.55;;;1.73;;
39792;SDS011;26080;42.264;24.536;2023-02-21T16:20:59;3.38;;;2.17;;
39792;SDS011;26080;42.264;24.536;2023-02-21T16:23:30;1.42;;;1.33;;
39792;SDS011;26080;42.264;24.536;2023-02-21T16:28:33;6.57;;;1.60;;
39792;SDS011;26080;42.264;24.536;2023-02-21T16:31:00;2.90;;;1.67;;
39792;SDS011;26080;42.264;24.536;2023-02-21T16:33:29;2.75;;;2.20;;
39792;SDS011;26080;42.264;24.536;2023-02-21T16:35:55;2.42;;;2.00;;
39792;SDS011;26080;42.264;24.536;2023-02-21T16:38:22;2.63;;;1.05;;
39792;SDS011;26080;42.264;24.536;2023-02-21T16:40:51;2.40;;;1.48;;
39792;SDS011;26080;42.264;24.536;2023-02-21T16:43:21;0.82;;;0.70;;
39792;SDS011;26080;42.264;24.536;2023-02-21T16:45:51;1.55;;;0.82;;
39792;SDS011;26080;42.264;24.536;2023-02-21T16:48:20;2.42;;;0.70;;
39792;SDS011;26080;42.264;24.536;2023-02-21T16:50:48;1.10;;;0.98;;
39792;SDS011;26080;42.264;24.536;2023-02-21T16:53:15;4.20;;;0.57;;
39792;SDS011;26080;42.264;24.536;2023-02-21T16:55:41;1.50;;;1.08;;
39792;SDS011;26080;42.264;24.536;2023-02-21T16:58:13;0.68;;;0.47;;
39792;SDS011;26080;42.264;24.536;2023-02-21T17:00:56;1.48;;;0.50;;
39792;SDS011;26080;42.264;24.536;2023-02-21T17:03:26;0.65;;;0.50;;
39792;SDS011;26080;42.264;24.536;2023-02-21T17:05:55;1.25;;;0.60;;
39792;SDS011;26080;42.264;24.536;2023-02-21T17:08:22;0.82;;;0.55;;
39792;SDS011;26080;42.264;24.536;2023-02-21T17:10:49;1.00;;;0.50;;
39792;SDS011;26080;42.264;24.536;2023-02-21T17:13:14;4.78;;;0.50;;
39792;SDS011;26080;42.264;24.536;2023-02-21T17:15:39;2.92;;;0.65;;
39792;SDS011;26080;42.264;24.536;2023-02-21T17:18:05;1.23;;;1.10;;
39792;SDS011;26080;42.264;24.536;2023-02-21T17:20:30;3.78;;;1.42;;
39792;SDS011;26080;42.264;24.536;2023-02-21T17:22:56;3.63;;;1.05;;
39792;SDS011;26080;42.264;24.536;2023-02-21T17:25:22;1.77;;;0.57;;
39792;SDS011;26080;42.264;24.536;2023-02-21T17:27:49;1.48;;;0.90;;
39792;SDS011;26080;42.264;24.536;2023-02-21T17:30:16;1.40;;;0.80;;
39792;SDS011;26080;42.264;24.536;2023-02-21T17:32:43;1.98;;;0.65;;
39792;SDS011;26080;42.264;24.536;2023-02-21T17:35:10;2.35;;;1.45;;
39792;SDS011;26080;42.264;24.536;2023-02-21T17:37:40;4.22;;;1.45;;
39792;SDS011;26080;42.264;24.536;2023-02-21T17:40:07;0.35;;;0.35;;
39792;SDS011;26080;42.264;24.536;2023-02-21T17:42:34;1.17;;;1.05;;
39792;SDS011;26080;42.264;24.536;2023-02-21T17:44:59;3.88;;;1.83;;
39792;SDS011;26080;42.264;24.536;2023-02-21T17:47:26;3.55;;;1.02;;
39792;SDS011;26080;42.264;24.536;2023-02-21T17:49:52;1.02;;;0.63;;
39792;SDS011;26080;42.264;24.536;2023-02-21T17:52:22;0.77;;;0.75;;
39792;SDS011;26080;42.264;24.536;2023-02-21T17:54:48;2.88;;;1.48;;
39792;SDS011;26080;42.264;24.536;2023-02-21T17:57:14;1.17;;;0.55;;
39792;SDS011;26080;42.264;24.536;2023-02-21T17:59:39;3.83;;;2.33;;
39792;SDS011;26080;42.264;24.536;2023-02-21T18:02:05;4.18;;;2.33;;
39792;SDS011;26080;42.264;24.536;2023-02-21T18:04:32;7.72;;;3.65;;
39792;SDS011;26080;42.264;24.536;2023-02-21T18:06:58;7.45;;;4.20;;
39792;SDS011;26080;42.264;24.536;2023-02-21T18:09:23;10.68;;;6.22;;
39792;SDS011;26080;42.264;24.536;2023-02-21T18:11:50;5.75;;;2.80;;
39792;SDS011;26080;42.264;24.536;2023-02-21T18:14:18;12.23;;;4.13;;
39792;SDS011;26080;42.264;24.536;2023-02-21T18:16:44;10.80;;;4.70;;
39792;SDS011;26080;42.264;24.536;2023-02-21T18:19:09;10.88;;;4.60;;
39792;SDS011;26080;42.264;24.536;2023-02-21T18:21:35;12.07;;;4.78;;
39792;SDS011;26080;42.264;24.536;2023-02-21T18:24:06;7.85;;;3.60;;
39792;SDS011;26080;42.264;24.536;2023-02-21T18:26:32;10.15;;;4.78;;
39792;SDS011;26080;42.264;24.536;2023-02-21T18:28:58;13.60;;;4.93;;
39792;SDS011;26080;42.264;24.536;2023-02-21T18:31:23;11.65;;;5.07;;
39792;SDS011;26080;42.264;24.536;2023-02-21T18:33:48;21.27;;;10.00;;
39792;SDS011;26080;42.264;24.536;2023-02-21T18:36:14;5.10;;;2.58;;
39792;SDS011;26080;42.264;24.536;2023-02-21T18:38:41;23.13;;;6.97;;
39792;SDS011;26080;42.264;24.536;2023-02-21T18:41:10;9.10;;;4.70;;
39792;SDS011;26080;42.264;24.536;2023-02-21T18:43:40;4.03;;;1.30;;
39792;SDS011;26080;42.264;24.536;2023-02-21T18:46:08;1.30;;;0.98;;
39792;SDS011;26080;42.264;24.536;2023-02-21T18:48:35;5.88;;;2.47;;
39792;SDS011;26080;42.264;24.536;2023-02-21T18:51:01;2.85;;;1.17;;
39792;SDS011;26080;42.264;24.536;2023-02-21T18:53:26;6.70;;;2.92;;
39792;SDS011;26080;42.264;24.536;2023-02-21T18:55:52;3.63;;;3.03;;
39792;SDS011;26080;42.264;24.536;2023-02-21T18:58:18;7.72;;;3.72;;